createdAt,value
2023-02-06T00:01:02.322Z,5.30
2023-02-06T00:04:05.956Z,3.80
2023-02-06T00:07:09.154Z,3.85
2023-02-06T00:10:12.091Z,4.40
2023-02-06T00:13:15.134Z,2.83
2023-02-06T00:16:23.578Z,2.50
2023-02-06T00:19:26.692Z,2.58
2023-02-06T00:22:29.968Z,2.45
2023-02-06T00:25:34.000Z,2.80
2023-02-06T00:31:41.734Z,2.65
2023-02-06T00:34:46.556Z,2.47
2023-02-06T00:37:51.453Z,2.78
2023-02-06T00:40:54.537Z,2.72
2023-02-06T00:43:57.528Z,2.00
2023-02-06T00:47:02.047Z,2.10
2023-02-06T00:50:06.433Z,1.85
2023-02-06T00:53:09.836Z,1.95
2023-02-06T00:56:12.916Z,1.77
2023-02-06T00:59:16.305Z,1.90
2023-02-06T01:02:20.788Z,2.90
2023-02-06T01:05:24.179Z,3.05
2023-02-06T01:08:27.502Z,3.30
2023-02-06T01:11:30.711Z,4.22
2023-02-06T01:14:33.814Z,4.80
2023-02-06T01:17:39.877Z,5.17
2023-02-06T01:20:43.302Z,6.28
2023-02-06T01:23:46.926Z,5.85
2023-02-06T01:26:50.685Z,5.13
2023-02-06T01:29:55.024Z,5.20
2023-02-06T01:32:59.654Z,5.40
2023-02-06T01:36:03.463Z,5.15
2023-02-06T01:39:08.023Z,5.30
2023-02-06T01:42:13.786Z,5.40
2023-02-06T01:45:41.705Z,5.22
2023-02-06T01:48:53.153Z,5.93
2023-02-06T01:52:08.135Z,5.53
2023-02-06T01:55:11.480Z,5.78
2023-02-06T01:58:25.173Z,5.75
2023-02-06T02:01:28.549Z,5.07
2023-02-06T02:04:36.975Z,5.15
2023-02-06T02:07:49.098Z,5.25
2023-02-06T02:10:52.445Z,5.22
2023-02-06T02:13:58.569Z,5.28
2023-02-06T02:17:26.358Z,5.32
2023-02-06T02:21:18.196Z,4.50
2023-02-06T02:24:41.990Z,4.28
2023-02-06T02:28:25.953Z,4.50
2023-02-06T02:32:05.008Z,4.55
2023-02-06T02:35:28.673Z,3.78
2023-02-06T02:38:51.441Z,4.40
2023-02-06T02:42:01.337Z,4.07
2023-02-06T02:45:14.180Z,4.72
2023-02-06T02:48:23.964Z,4.32
2023-02-06T02:51:28.536Z,5.07
2023-02-06T02:54:31.551Z,4.93
2023-02-06T02:57:34.782Z,5.82
2023-02-06T03:00:44.954Z,5.27
2023-02-06T03:03:53.061Z,4.70
2023-02-06T03:07:14.472Z,4.63
2023-02-06T03:10:28.207Z,5.53
2023-02-06T03:13:38.735Z,4.30
2023-02-06T03:16:47.546Z,4.55
2023-02-06T03:19:58.131Z,4.60
2023-02-06T03:23:07.846Z,4.53
2023-02-06T03:26:16.840Z,4.93
2023-02-06T03:29:22.866Z,4.85
2023-02-06T03:32:31.049Z,4.22
2023-02-06T03:35:38.517Z,4.70
2023-02-06T03:38:43.224Z,5.03
2023-02-06T03:41:48.649Z,5.60
2023-02-06T03:45:00.461Z,5.43
2023-02-06T03:48:11.293Z,5.13
2023-02-06T03:51:22.155Z,5.75
2023-02-06T03:54:29.267Z,6.05
2023-02-06T03:57:38.144Z,6.47
2023-02-06T04:00:44.696Z,5.82
2023-02-06T04:03:48.732Z,7.00
2023-02-06T04:09:56.346Z,6.15
2023-02-06T04:12:59.989Z,6.18
2023-02-06T04:16:03.875Z,5.53
2023-02-06T04:22:13.926Z,5.22
2023-02-06T04:25:18.471Z,5.10
2023-02-06T04:28:21.771Z,5.57
2023-02-06T04:31:25.758Z,5.80
2023-02-06T04:34:29.254Z,5.30
2023-02-06T04:37:33.612Z,5.53
2023-02-06T04:40:39.143Z,5.43
2023-02-06T04:43:42.424Z,6.05
2023-02-06T04:46:45.913Z,6.80
2023-02-06T04:49:48.945Z,6.43
2023-02-06T04:52:52.333Z,6.63
2023-02-06T04:56:03.615Z,5.57
2023-02-06T04:59:06.899Z,5.93
2023-02-06T05:02:10.074Z,6.07
2023-02-06T05:05:13.351Z,6.37
2023-02-06T05:08:16.802Z,5.85
2023-02-06T05:11:21.329Z,6.53
2023-02-06T05:14:24.891Z,5.88
2023-02-06T05:17:27.851Z,5.05
2023-02-06T05:20:31.057Z,4.47
2023-02-06T05:23:34.451Z,4.50
2023-02-06T05:26:39.294Z,4.70
2023-02-06T05:29:43.049Z,4.35
2023-02-06T05:32:46.694Z,3.63
2023-02-06T05:35:50.096Z,3.90
2023-02-06T05:38:53.346Z,3.80
2023-02-06T05:41:59.089Z,3.87
2023-02-06T05:45:02.714Z,4.22
2023-02-06T05:48:07.148Z,3.87
2023-02-06T05:51:10.300Z,3.20
2023-02-06T05:54:17.015Z,3.58
2023-02-06T05:57:21.466Z,3.22
2023-02-06T06:00:24.716Z,3.50
2023-02-06T06:03:28.043Z,4.10
2023-02-06T06:06:31.097Z,3.87
2023-02-06T06:09:34.548Z,4.33
2023-02-06T06:12:39.179Z,4.43
2023-02-06T06:15:43.259Z,4.45
2023-02-06T06:18:46.437Z,4.40
2023-02-06T06:21:49.638Z,4.50
2023-02-06T06:24:53.339Z,5.33
2023-02-06T06:27:57.927Z,5.15
2023-02-06T06:31:05.085Z,4.60
2023-02-06T06:34:08.224Z,5.53
2023-02-06T06:37:11.755Z,5.53
2023-02-06T06:40:15.919Z,5.28
2023-02-06T06:43:20.760Z,5.20
2023-02-06T06:46:24.158Z,4.93
2023-02-06T06:49:29.021Z,4.55
2023-02-06T06:52:33.372Z,4.75
2023-02-06T06:58:42.188Z,5.38
2023-02-06T07:01:45.604Z,5.22
2023-02-06T07:04:48.773Z,5.97
2023-02-06T07:07:55.920Z,6.03
2023-02-06T07:11:00.417Z,7.43
2023-02-06T07:14:06.350Z,5.85
2023-02-06T07:17:09.769Z,6.60
2023-02-06T07:20:13.443Z,7.82
2023-02-06T07:23:16.784Z,5.25
2023-02-06T07:26:19.863Z,6.38
2023-02-06T07:29:24.454Z,6.33
2023-02-06T07:32:27.679Z,5.82
2023-02-06T07:35:30.789Z,5.73
2023-02-06T07:38:33.866Z,7.23
2023-02-06T07:41:37.026Z,7.55
2023-02-06T07:44:41.432Z,6.73
2023-02-06T07:47:45.343Z,6.63
2023-02-06T07:50:48.394Z,6.47
2023-02-06T07:53:51.582Z,5.68
2023-02-06T07:56:54.921Z,5.07
2023-02-06T07:59:59.283Z,4.83
2023-02-06T08:03:02.574Z,6.25
2023-02-06T08:06:10.417Z,5.60
2023-02-06T08:09:17.238Z,5.53
2023-02-06T08:12:23.188Z,6.45
2023-02-06T08:15:30.035Z,6.15
2023-02-06T08:18:33.200Z,5.80
2023-02-06T08:21:36.197Z,5.93
2023-02-06T08:24:39.335Z,5.90
2023-02-06T08:27:42.489Z,6.17
2023-02-06T08:30:47.031Z,6.03
2023-02-06T08:33:51.513Z,6.28
2023-02-06T08:36:54.632Z,7.18
2023-02-06T08:39:58.232Z,6.47
2023-02-06T08:43:01.220Z,7.18
2023-02-06T08:46:05.840Z,5.68
2023-02-06T08:49:14.028Z,6.40
2023-02-06T08:52:18.558Z,6.65
2023-02-06T08:55:25.208Z,6.47
2023-02-06T08:58:28.940Z,5.95
2023-02-06T09:01:36.663Z,8.05
2023-02-06T09:04:42.545Z,6.20
2023-02-06T09:07:45.683Z,7.05
2023-02-06T09:10:48.712Z,6.23
2023-02-06T09:13:54.957Z,5.70
2023-02-06T09:16:59.540Z,7.05
2023-02-06T09:20:03.439Z,5.75
2023-02-06T09:23:06.432Z,6.13
2023-02-06T09:26:09.596Z,5.95
2023-02-06T09:29:13.721Z,6.40
2023-02-06T09:32:18.541Z,6.45
2023-02-06T09:35:21.550Z,6.72
2023-02-06T09:38:25.377Z,7.07
2023-02-06T09:41:35.073Z,5.75
2023-02-06T09:44:48.872Z,6.13
2023-02-06T09:47:58.334Z,6.38
2023-02-06T09:51:16.353Z,6.57
2023-02-06T09:54:30.768Z,7.72
2023-02-06T09:57:46.908Z,7.47
2023-02-06T10:00:59.309Z,8.27
2023-02-06T10:04:32.509Z,8.45
2023-02-06T10:07:57.321Z,7.15
2023-02-06T10:11:04.807Z,7.03
2023-02-06T10:14:22.379Z,8.23
2023-02-06T10:17:31.293Z,7.07
2023-02-06T10:20:47.670Z,8.80
2023-02-06T10:23:59.278Z,8.50
2023-02-06T10:27:10.448Z,7.70
2023-02-06T10:30:19.168Z,8.13
2023-02-06T10:33:36.819Z,8.10
2023-02-06T10:36:56.210Z,6.75
2023-02-06T10:40:27.573Z,7.20
2023-02-06T10:43:42.195Z,7.07
2023-02-06T10:46:48.841Z,7.45
2023-02-06T10:50:01.471Z,6.72
2023-02-06T10:53:21.713Z,6.00
2023-02-06T10:56:29.829Z,6.03
2023-02-06T10:59:39.209Z,7.00
2023-02-06T11:03:01.355Z,6.85
2023-02-06T11:06:16.822Z,6.60
2023-02-06T11:09:21.504Z,6.88
2023-02-06T11:12:33.136Z,6.60
2023-02-06T11:15:43.945Z,6.88
2023-02-06T11:18:49.949Z,7.78
2023-02-06T11:21:58.516Z,6.65
2023-02-06T11:25:07.602Z,6.25
2023-02-06T11:28:23.140Z,6.60
2023-02-06T11:31:44.584Z,7.50
2023-02-06T11:34:58.568Z,6.70
2023-02-06T11:38:14.866Z,6.78
2023-02-06T11:41:20.408Z,6.72
2023-02-06T11:44:26.920Z,6.68
2023-02-06T11:47:35.067Z,7.47
2023-02-06T11:50:41.229Z,7.22
2023-02-06T11:53:58.939Z,7.32
2023-02-06T11:57:09.553Z,6.75
2023-02-06T12:00:23.696Z,7.38
2023-02-06T12:03:36.469Z,7.68
2023-02-06T12:06:42.508Z,7.13
2023-02-06T12:09:45.729Z,8.05
2023-02-06T12:12:56.600Z,8.57
2023-02-06T12:16:04.495Z,8.45
2023-02-06T12:19:17.927Z,8.27
2023-02-06T12:22:26.741Z,8.40
2023-02-06T12:25:36.243Z,7.72
2023-02-06T12:28:57.645Z,8.00
2023-02-06T12:32:09.303Z,7.75
2023-02-06T12:35:21.606Z,8.23
2023-02-06T12:38:36.424Z,8.00
2023-02-06T12:42:10.137Z,7.95
2023-02-06T12:45:34.106Z,8.98
2023-02-06T12:48:44.835Z,8.77
2023-02-06T12:51:57.145Z,8.63
2023-02-06T12:55:15.142Z,9.13
2023-02-06T12:58:28.904Z,7.75
2023-02-06T13:01:55.338Z,9.18
2023-02-06T13:05:03.916Z,9.07
2023-02-06T13:08:11.070Z,8.63
2023-02-06T13:11:27.697Z,8.93
2023-02-06T13:14:31.938Z,9.73
2023-02-06T13:17:42.428Z,8.85
2023-02-06T13:21:18.832Z,8.30
2023-02-06T13:24:22.861Z,8.00
2023-02-06T13:30:50.676Z,8.52
2023-02-06T13:34:01.630Z,8.35
2023-02-06T13:37:33.606Z,8.55
2023-02-06T13:40:37.466Z,8.32
2023-02-06T13:43:43.324Z,8.65
2023-02-06T13:47:29.371Z,8.32
2023-02-06T13:50:58.074Z,8.45
2023-02-06T13:54:48.565Z,7.72
2023-02-06T13:58:28.740Z,7.88
2023-02-06T14:01:33.677Z,7.65
2023-02-06T14:04:40.816Z,7.10
2023-02-06T14:08:16.839Z,7.18
2023-02-06T14:11:40.992Z,7.38
2023-02-06T14:15:05.773Z,8.20
2023-02-06T14:18:43.539Z,7.35
2023-02-06T14:22:04.278Z,7.57
2023-02-06T14:25:48.575Z,7.28
2023-02-06T14:29:04.462Z,7.33
2023-02-06T14:32:33.167Z,8.63
2023-02-06T14:35:54.520Z,7.65
2023-02-06T14:39:30.894Z,8.70
2023-02-06T14:42:42.220Z,8.05
2023-02-06T14:46:06.319Z,7.63
2023-02-06T14:49:18.693Z,7.95
2023-02-06T14:52:26.050Z,6.70
2023-02-06T14:55:50.073Z,7.57
2023-02-06T14:59:52.733Z,8.32
2023-02-06T15:03:33.051Z,7.63
2023-02-06T15:07:18.825Z,7.95
2023-02-06T15:11:01.041Z,7.47
2023-02-06T15:14:45.151Z,8.32
2023-02-06T15:18:22.834Z,9.43
2023-02-06T15:21:27.654Z,8.55
2023-02-06T15:25:18.844Z,10.20
2023-02-06T15:28:45.580Z,9.70
2023-02-06T15:32:35.434Z,10.77
2023-02-06T15:36:33.223Z,10.65
2023-02-06T15:40:05.486Z,11.65
2023-02-06T15:43:20.240Z,12.48
2023-02-06T15:47:06.910Z,12.33
2023-02-06T15:50:52.319Z,11.63
2023-02-06T15:54:23.299Z,12.73
2023-02-06T15:57:33.239Z,12.93
2023-02-06T16:01:36.230Z,12.73
2023-02-06T16:04:45.986Z,13.38
2023-02-06T16:07:51.275Z,13.98
2023-02-06T16:11:01.456Z,13.02
2023-02-06T16:14:04.988Z,11.80
2023-02-06T16:17:29.326Z,12.88
2023-02-06T16:20:39.981Z,13.15
2023-02-06T16:23:49.664Z,11.68
2023-02-06T16:26:53.004Z,11.20
2023-02-06T16:29:58.328Z,10.67
2023-02-06T16:33:23.079Z,9.68
2023-02-06T16:36:26.066Z,11.95
2023-02-06T16:39:30.519Z,11.93
2023-02-06T16:42:37.516Z,13.00
2023-02-06T16:45:40.799Z,12.95
2023-02-06T16:48:43.882Z,13.80
2023-02-06T16:51:50.535Z,12.07
2023-02-06T16:54:57.679Z,11.50
2023-02-06T16:58:02.778Z,13.43
2023-02-06T17:01:08.493Z,14.82
2023-02-06T17:04:11.916Z,12.48
2023-02-06T17:07:19.681Z,14.07
2023-02-06T17:10:26.744Z,13.13
2023-02-06T17:13:31.310Z,13.25
2023-02-06T17:16:34.570Z,13.80
2023-02-06T17:19:37.830Z,14.20
2023-02-06T17:22:40.934Z,13.57
2023-02-06T17:25:47.182Z,13.07
2023-02-06T17:28:51.395Z,12.27
2023-02-06T17:31:54.766Z,14.27
2023-02-06T17:35:01.731Z,12.90
2023-02-06T17:38:05.359Z,13.82
2023-02-06T17:41:10.122Z,13.38
2023-02-06T17:44:13.373Z,12.85
2023-02-06T17:47:17.182Z,13.10
2023-02-06T17:50:23.338Z,14.13
2023-02-06T17:53:26.491Z,15.23
2023-02-06T17:56:32.508Z,13.80
2023-02-06T17:59:36.501Z,13.40
2023-02-06T18:02:40.067Z,14.07
2023-02-06T18:05:44.471Z,14.43
2023-02-06T18:08:48.878Z,12.57
2023-02-06T18:11:53.221Z,12.95
2023-02-06T18:14:56.501Z,11.98
2023-02-06T18:18:00.285Z,11.43
2023-02-06T18:21:03.410Z,12.63
2023-02-06T18:24:07.846Z,12.03
2023-02-06T18:27:12.978Z,11.95
2023-02-06T18:30:17.377Z,13.70
2023-02-06T18:33:20.681Z,11.20
2023-02-06T18:36:24.576Z,10.70
2023-02-06T18:39:27.862Z,12.70
2023-02-06T18:42:49.805Z,12.20
2023-02-06T18:45:52.891Z,10.80
2023-02-06T18:48:56.307Z,11.80
2023-02-06T18:51:59.330Z,12.63
2023-02-06T18:55:02.480Z,12.23
2023-02-06T18:58:07.991Z,12.03
2023-02-06T19:01:16.441Z,11.05
2023-02-06T19:04:19.751Z,11.30
2023-02-06T19:07:22.798Z,10.80
2023-02-06T19:10:27.159Z,10.32
2023-02-06T19:13:31.586Z,10.13
2023-02-06T19:16:37.570Z,11.07
2023-02-06T19:19:40.899Z,11.27
2023-02-06T19:22:44.133Z,11.55
2023-02-06T19:25:47.272Z,11.20
2023-02-06T19:28:52.196Z,10.63
2023-02-06T19:31:55.258Z,11.15
2023-02-06T19:34:58.754Z,11.53
2023-02-06T19:38:03.424Z,12.10
2023-02-06T19:41:08.258Z,11.80
2023-02-06T19:44:14.774Z,12.23
2023-02-06T19:47:17.767Z,11.52
2023-02-06T19:50:20.953Z,11.13
2023-02-06T19:53:24.009Z,12.07
2023-02-06T19:56:32.630Z,12.13
2023-02-06T19:59:37.061Z,12.27
2023-02-06T20:02:40.390Z,10.73
2023-02-06T20:05:44.435Z,11.27
2023-02-06T20:11:51.297Z,10.00
2023-02-06T20:14:55.690Z,10.75
2023-02-06T20:17:59.707Z,10.00
2023-02-06T20:24:10.228Z,9.85
2023-02-06T20:27:14.464Z,11.32
2023-02-06T20:30:21.983Z,10.98
2023-02-06T20:33:24.959Z,11.77
2023-02-06T20:36:29.222Z,12.43
2023-02-06T20:39:32.754Z,12.90
2023-02-06T20:42:39.450Z,12.85
2023-02-06T20:45:43.877Z,14.20
2023-02-06T20:48:54.516Z,14.52
2023-02-06T20:51:57.835Z,15.30
2023-02-06T20:55:01.226Z,14.60
2023-02-06T20:58:04.325Z,14.55
2023-02-06T21:01:16.099Z,14.20
2023-02-06T21:04:20.971Z,12.75
2023-02-06T21:07:24.288Z,12.25
2023-02-06T21:10:28.294Z,12.65
2023-02-06T21:16:38.674Z,11.02
2023-02-06T21:19:42.469Z,9.75
2023-02-06T21:22:45.474Z,11.00
2023-02-06T21:25:52.803Z,10.57
2023-02-06T21:28:57.992Z,10.82
2023-02-06T21:32:13.563Z,10.75
2023-02-06T21:35:17.483Z,10.95
2023-02-06T21:38:21.069Z,11.07
2023-02-06T21:41:25.015Z,10.60
2023-02-06T21:44:28.956Z,10.07
2023-02-06T21:47:33.396Z,10.02
2023-02-06T21:50:40.188Z,9.68
2023-02-06T21:53:45.756Z,10.00
2023-02-06T21:56:48.808Z,9.65
2023-02-06T21:59:51.925Z,9.48
2023-02-06T22:02:56.313Z,8.50
2023-02-06T22:06:08.370Z,8.98
2023-02-06T22:09:16.997Z,9.63
2023-02-06T22:12:20.150Z,10.60
2023-02-06T22:15:24.098Z,11.43
2023-02-06T22:18:28.530Z,11.75
2023-02-06T22:21:33.458Z,12.07
2023-02-06T22:24:36.488Z,11.02
2023-02-06T22:27:39.974Z,11.52
2023-02-06T22:30:43.150Z,11.52
2023-02-06T22:33:47.765Z,10.93
2023-02-06T22:36:51.591Z,10.25
2023-02-06T22:39:56.491Z,10.73
2023-02-06T22:42:59.678Z,11.32
2023-02-06T22:46:03.114Z,10.53
2023-02-06T22:49:10.504Z,10.43
2023-02-06T22:52:27.555Z,10.35
2023-02-06T22:55:50.649Z,8.45
2023-02-06T22:58:54.862Z,9.48
2023-02-06T23:01:59.885Z,9.65
2023-02-06T23:05:04.465Z,9.77
2023-02-06T23:08:07.772Z,9.48
2023-02-06T23:11:12.675Z,9.02
2023-02-06T23:14:17.620Z,8.18
2023-02-06T23:17:20.718Z,9.85
2023-02-06T23:20:26.157Z,9.20
2023-02-06T23:23:29.987Z,9.25
2023-02-06T23:26:34.610Z,8.50
2023-02-06T23:29:38.240Z,9.93
2023-02-06T23:32:49.440Z,8.63
2023-02-06T23:36:05.814Z,8.40
2023-02-06T23:39:09.783Z,7.55
2023-02-06T23:42:12.730Z,7.33
2023-02-06T23:45:16.194Z,7.05
2023-02-06T23:48:19.235Z,7.65
2023-02-06T23:51:25.024Z,7.30
2023-02-06T23:54:28.062Z,6.63
2023-02-06T23:57:35.919Z,7.10
